sensor_id;sensor_type;location;lat;lon;timestamp;pressure;altitude;pressure_sealevel;temperature;humidity
45285;BME280;31026;43.780;25.948;2023-04-05T00:01:03;100481.19;;;17.36;68.52
45285;BME280;31026;43.780;25.948;2023-04-05T00:06:14;100492.63;;;17.17;69.01
45285;BME280;31026;43.780;25.948;2023-04-05T00:08:45;100486.69;;;17.14;69.35
45285;BME280;31026;43.780;25.948;2023-04-05T00:11:16;100476.44;;;17.19;69.19
45285;BME280;31026;43.780;25.948;2023-04-05T00:13:46;100484.81;;;17.25;68.70
45285;BME280;31026;43.780;25.948;2023-04-05T00:16:20;100478.34;;;17.28;68.60
45285;BME280;31026;43.780;25.948;2023-04-05T00:18:50;100469.88;;;17.23;68.19
45285;BME280;31026;43.780;25.948;2023-04-05T00:21:21;100473.34;;;17.14;68.74
45285;BME280;31026;43.780;25.948;2023-04-05T00:23:49;100489.06;;;17.07;68.82
45285;BME280;31026;43.780;25.948;2023-04-05T00:26:18;100479.72;;;17.01;69.06
45285;BME280;31026;43.780;25.948;2023-04-05T00:28:49;100485.25;;;17.09;68.62
45285;BME280;31026;43.780;25.948;2023-04-05T00:31:17;100466.69;;;17.08;69.07
45285;BME280;31026;43.780;25.948;2023-04-05T00:33:45;100472.56;;;17.02;68.65
45285;BME280;31026;43.780;25.948;2023-04-05T00:36:15;100481.41;;;17.02;68.56
45285;BME280;31026;43.780;25.948;2023-04-05T00:38:53;100466.38;;;17.01;68.54
45285;BME280;31026;43.780;25.948;2023-04-05T00:41:28;100466.50;;;17.00;68.93
45285;BME280;31026;43.780;25.948;2023-04-05T00:43:57;100464.84;;;17.08;68.93
45285;BME280;31026;43.780;25.948;2023-04-05T00:46:28;100460.88;;;17.03;69.00
45285;BME280;31026;43.780;25.948;2023-04-05T00:48:56;100464.22;;;17.16;68.47
45285;BME280;31026;43.780;25.948;2023-04-05T00:51:24;100451.78;;;17.05;69.10
45285;BME280;31026;43.780;25.948;2023-04-05T00:53:56;100448.69;;;17.10;68.76
45285;BME280;31026;43.780;25.948;2023-04-05T00:56:24;100462.72;;;17.02;68.84
45285;BME280;31026;43.780;25.948;2023-04-05T00:58:52;100450.84;;;17.16;68.53
45285;BME280;31026;43.780;25.948;2023-04-05T01:01:22;100465.56;;;17.10;68.60
45285;BME280;31026;43.780;25.948;2023-04-05T01:03:54;100457.38;;;17.02;68.24
45285;BME280;31026;43.780;25.948;2023-04-05T01:11:34;100467.97;;;16.93;68.65
45285;BME280;31026;43.780;25.948;2023-04-05T01:14:06;100467.44;;;16.99;68.42
45285;BME280;31026;43.780;25.948;2023-04-05T01:16:37;100452.50;;;17.07;68.41
45285;BME280;31026;43.780;25.948;2023-04-05T01:19:05;100457.63;;;16.99;68.15
45285;BME280;31026;43.780;25.948;2023-04-05T01:24:28;100449.34;;;17.02;68.72
45285;BME280;31026;43.780;25.948;2023-04-05T01:27:06;100450.28;;;16.92;68.83
45285;BME280;31026;43.780;25.948;2023-04-05T01:29:52;100442.38;;;16.90;68.79
45285;BME280;31026;43.780;25.948;2023-04-05T01:35:04;100447.84;;;16.88;68.88
45285;BME280;31026;43.780;25.948;2023-04-05T01:40:30;100452.53;;;16.96;68.66
45285;BME280;31026;43.780;25.948;2023-04-05T01:43:01;100443.28;;;17.00;68.92
45285;BME280;31026;43.780;25.948;2023-04-05T01:45:33;100447.50;;;17.45;67.54
45285;BME280;31026;43.780;25.948;2023-04-05T01:48:04;100436.56;;;18.39;65.26
45285;BME280;31026;43.780;25.948;2023-04-05T01:50:36;100424.75;;;19.37;61.88
45285;BME280;31026;43.780;25.948;2023-04-05T01:53:12;100418.75;;;19.53;61.53
45285;BME280;31026;43.780;25.948;2023-04-05T01:55:50;100430.19;;;19.93;60.96
45285;BME280;31026;43.780;25.948;2023-04-05T01:58:22;100425.84;;;19.92;60.67
45285;BME280;31026;43.780;25.948;2023-04-05T02:00:55;100417.31;;;19.59;61.87
45285;BME280;31026;43.780;25.948;2023-04-05T02:03:36;100418.84;;;19.71;61.60
45285;BME280;31026;43.780;25.948;2023-04-05T02:06:04;100428.69;;;19.80;61.16
45285;BME280;31026;43.780;25.948;2023-04-05T02:08:34;100414.97;;;19.83;61.50
45285;BME280;31026;43.780;25.948;2023-04-05T02:11:10;100409.50;;;19.75;61.95
45285;BME280;31026;43.780;25.948;2023-04-05T02:13:38;100432.31;;;19.89;61.15
45285;BME280;31026;43.780;25.948;2023-04-05T02:16:10;100424.69;;;19.94;61.29
45285;BME280;31026;43.780;25.948;2023-04-05T02:18:44;100422.38;;;19.99;61.22
45285;BME280;31026;43.780;25.948;2023-04-05T02:21:15;100429.16;;;20.03;60.84
45285;BME280;31026;43.780;25.948;2023-04-05T02:23:43;100427.84;;;20.08;60.86
45285;BME280;31026;43.780;25.948;2023-04-05T02:26:14;100429.53;;;20.09;61.23
45285;BME280;31026;43.780;25.948;2023-04-05T02:28:44;100440.59;;;20.05;60.88
45285;BME280;31026;43.780;25.948;2023-04-05T02:31:15;100434.19;;;20.06;60.94
45285;BME280;31026;43.780;25.948;2023-04-05T02:33:45;100442.13;;;20.08;60.79
45285;BME280;31026;43.780;25.948;2023-04-05T02:36:14;100430.00;;;20.04;61.22
45285;BME280;31026;43.780;25.948;2023-04-05T02:38:47;100444.88;;;20.16;61.20
45285;BME280;31026;43.780;25.948;2023-04-05T02:41:16;100434.59;;;20.12;61.14
45285;BME280;31026;43.780;25.948;2023-04-05T02:43:46;100446.97;;;20.22;60.92
45285;BME280;31026;43.780;25.948;2023-04-05T02:46:18;100439.13;;;20.11;61.16
45285;BME280;31026;43.780;25.948;2023-04-05T02:48:46;100448.66;;;20.23;61.02
45285;BME280;31026;43.780;25.948;2023-04-05T02:51:20;100439.22;;;20.19;61.15
45285;BME280;31026;43.780;25.948;2023-04-05T02:53:49;100444.28;;;20.22;60.76
45285;BME280;31026;43.780;25.948;2023-04-05T02:56:18;100438.28;;;20.29;61.02
45285;BME280;31026;43.780;25.948;2023-04-05T02:58:53;100438.69;;;20.34;60.51
45285;BME280;31026;43.780;25.948;2023-04-05T03:01:25;100448.84;;;20.40;60.77
45285;BME280;31026;43.780;25.948;2023-04-05T03:03:53;100448.84;;;20.40;60.73
45285;BME280;31026;43.780;25.948;2023-04-05T03:06:22;100450.22;;;20.44;60.71
45285;BME280;31026;43.780;25.948;2023-04-05T03:08:50;100453.50;;;20.38;60.67
45285;BME280;31026;43.780;25.948;2023-04-05T03:11:21;100448.00;;;20.39;60.32
45285;BME280;31026;43.780;25.948;2023-04-05T03:16:32;100438.63;;;20.25;61.17
45285;BME280;31026;43.780;25.948;2023-04-05T03:19:02;100445.38;;;20.30;60.56
45285;BME280;31026;43.780;25.948;2023-04-05T03:21:32;100440.84;;;20.30;61.16
45285;BME280;31026;43.780;25.948;2023-04-05T03:24:00;100447.75;;;20.33;60.58
45285;BME280;31026;43.780;25.948;2023-04-05T03:26:31;100442.78;;;20.38;60.79
45285;BME280;31026;43.780;25.948;2023-04-05T03:28:59;100452.75;;;20.27;61.33
45285;BME280;31026;43.780;25.948;2023-04-05T03:34:04;100451.25;;;20.33;61.15
45285;BME280;31026;43.780;25.948;2023-04-05T03:36:34;100461.16;;;20.33;60.73
45285;BME280;31026;43.780;25.948;2023-04-05T03:39:09;100450.22;;;20.44;60.73
45285;BME280;31026;43.780;25.948;2023-04-05T03:41:39;100452.91;;;20.44;60.42
45285;BME280;31026;43.780;25.948;2023-04-05T03:44:10;100442.06;;;20.36;60.88
45285;BME280;31026;43.780;25.948;2023-04-05T03:46:48;100461.94;;;20.43;60.40
45285;BME280;31026;43.780;25.948;2023-04-05T03:49:20;100445.81;;;20.43;60.61
45285;BME280;31026;43.780;25.948;2023-04-05T03:51:54;100450.81;;;20.38;60.62
45285;BME280;31026;43.780;25.948;2023-04-05T03:54:29;100454.06;;;20.41;60.73
45285;BME280;31026;43.780;25.948;2023-04-05T03:57:08;100466.25;;;20.36;60.80
45285;BME280;31026;43.780;25.948;2023-04-05T03:59:36;100460.41;;;20.40;60.71
45285;BME280;31026;43.780;25.948;2023-04-05T04:02:06;100462.28;;;19.84;62.47
45285;BME280;31026;43.780;25.948;2023-04-05T04:04:37;100462.59;;;19.34;63.65
45285;BME280;31026;43.780;25.948;2023-04-05T04:07:07;100469.13;;;19.02;64.42
45285;BME280;31026;43.780;25.948;2023-04-05T04:09:35;100483.69;;;18.90;65.06
45285;BME280;31026;43.780;25.948;2023-04-05T04:12:05;100476.31;;;18.63;65.53
45285;BME280;31026;43.780;25.948;2023-04-05T04:14:33;100467.56;;;18.71;64.85
45285;BME280;31026;43.780;25.948;2023-04-05T04:17:03;100472.53;;;19.04;64.35
45285;BME280;31026;43.780;25.948;2023-04-05T04:19:37;100483.00;;;19.55;62.96
45285;BME280;31026;43.780;25.948;2023-04-05T04:22:06;100479.66;;;19.33;63.16
45285;BME280;31026;43.780;25.948;2023-04-05T04:24:34;100486.19;;;19.01;64.23
45285;BME280;31026;43.780;25.948;2023-04-05T04:27:04;100483.94;;;18.87;64.43
45285;BME280;31026;43.780;25.948;2023-04-05T04:29:35;100486.34;;;18.80;64.91
45285;BME280;31026;43.780;25.948;2023-04-05T04:32:12;100481.66;;;19.12;64.27
45285;BME280;31026;43.780;25.948;2023-04-05T04:34:43;100481.16;;;19.45;62.66
45285;BME280;31026;43.780;25.948;2023-04-05T04:37:13;100488.00;;;19.67;62.56
45285;BME280;31026;43.780;25.948;2023-04-05T04:39:43;100488.00;;;19.67;61.94
45285;BME280;31026;43.780;25.948;2023-04-05T04:42:18;100476.31;;;19.68;62.27
45285;BME280;31026;43.780;25.948;2023-04-05T04:44:54;100486.06;;;19.70;62.40
45285;BME280;31026;43.780;25.948;2023-04-05T04:47:28;100483.25;;;19.52;62.88
45285;BME280;31026;43.780;25.948;2023-04-05T04:50:02;100487.03;;;19.02;63.71
45285;BME280;31026;43.780;25.948;2023-04-05T04:52:32;100493.94;;;18.75;64.74
45285;BME280;31026;43.780;25.948;2023-04-05T04:55:01;100501.97;;;18.75;64.82
45285;BME280;31026;43.780;25.948;2023-04-05T04:57:32;100475.19;;;19.04;64.18
45285;BME280;31026;43.780;25.948;2023-04-05T05:00:00;100499.66;;;19.48;63.07
45285;BME280;31026;43.780;25.948;2023-04-05T05:02:40;100486.38;;;19.57;62.40
45285;BME280;31026;43.780;25.948;2023-04-05T05:05:11;100492.84;;;19.64;62.31
45285;BME280;31026;43.780;25.948;2023-04-05T05:07:41;100480.69;;;19.70;61.48
45285;BME280;31026;43.780;25.948;2023-04-05T05:10:16;100474.06;;;19.64;61.47
45285;BME280;31026;43.780;25.948;2023-04-05T05:12:51;100484.94;;;19.72;60.97
45285;BME280;31026;43.780;25.948;2023-04-05T05:15:20;100483.25;;;19.71;61.25
45285;BME280;31026;43.780;25.948;2023-04-05T05:17:50;100481.53;;;19.70;60.96
45285;BME280;31026;43.780;25.948;2023-04-05T05:20:28;100488.97;;;19.29;62.32
45285;BME280;31026;43.780;25.948;2023-04-05T05:22:57;100492.44;;;18.92;63.65
45285;BME280;31026;43.780;25.948;2023-04-05T05:25:26;100484.22;;;18.74;64.06
45285;BME280;31026;43.780;25.948;2023-04-05T05:27:55;100487.47;;;18.97;63.50
45285;BME280;31026;43.780;25.948;2023-04-05T05:30:26;100469.63;;;19.35;62.32
45285;BME280;31026;43.780;25.948;2023-04-05T05:32:56;100490.16;;;19.64;61.67
45285;BME280;31026;43.780;25.948;2023-04-05T05:38:05;100490.56;;;19.69;61.49
45285;BME280;31026;43.780;25.948;2023-04-05T05:40:35;100504.41;;;19.74;61.79
45285;BME280;31026;43.780;25.948;2023-04-05T05:43:04;100497.03;;;19.29;62.83
45285;BME280;31026;43.780;25.948;2023-04-05T05:45:33;100489.56;;;18.94;63.56
45285;BME280;31026;43.780;25.948;2023-04-05T05:48:02;100494.75;;;18.76;64.69
45285;BME280;31026;43.780;25.948;2023-04-05T05:53:07;100490.69;;;19.30;63.19
45285;BME280;31026;43.780;25.948;2023-04-05T05:55:38;100479.34;;;19.56;62.47
45285;BME280;31026;43.780;25.948;2023-04-05T05:58:11;100495.38;;;19.65;62.27
45285;BME280;31026;43.780;25.948;2023-04-05T06:00:46;100507.38;;;19.71;62.03
45285;BME280;31026;43.780;25.948;2023-04-05T06:03:15;100485.19;;;19.69;61.68
45285;BME280;31026;43.780;25.948;2023-04-05T06:05:49;100503.97;;;19.69;62.06
45285;BME280;31026;43.780;25.948;2023-04-05T06:08:20;100502.88;;;19.72;62.10
45285;BME280;31026;43.780;25.948;2023-04-05T06:10:49;100500.84;;;19.36;62.97
45285;BME280;31026;43.780;25.948;2023-04-05T06:13:18;100509.59;;;18.99;63.90
45285;BME280;31026;43.780;25.948;2023-04-05T06:15:48;100509.88;;;18.77;64.55
45285;BME280;31026;43.780;25.948;2023-04-05T06:18:18;100513.00;;;18.92;64.36
45285;BME280;31026;43.780;25.948;2023-04-05T06:20:49;100511.25;;;19.30;63.49
45285;BME280;31026;43.780;25.948;2023-04-05T06:23:21;100523.22;;;19.55;62.60
45285;BME280;31026;43.780;25.948;2023-04-05T06:25:49;100529.41;;;19.55;61.75
45285;BME280;31026;43.780;25.948;2023-04-05T06:28:24;100512.91;;;19.60;61.22
45285;BME280;31026;43.780;25.948;2023-04-05T06:30:52;100527.72;;;19.64;61.24
45285;BME280;31026;43.780;25.948;2023-04-05T06:33:23;100516.81;;;19.75;60.96
45285;BME280;31026;43.780;25.948;2023-04-05T06:35:51;100522.19;;;19.65;61.53
45285;BME280;31026;43.780;25.948;2023-04-05T06:38:23;100520.31;;;19.19;62.62
45285;BME280;31026;43.780;25.948;2023-04-05T06:40:53;100520.31;;;18.90;63.60
45285;BME280;31026;43.780;25.948;2023-04-05T06:43:21;100522.69;;;18.73;63.93
45285;BME280;31026;43.780;25.948;2023-04-05T06:48:27;100515.50;;;19.32;62.06
45285;BME280;31026;43.780;25.948;2023-04-05T06:50:57;100516.56;;;19.59;61.00
45285;BME280;31026;43.780;25.948;2023-04-05T06:53:29;100517.78;;;19.17;62.22
45285;BME280;31026;43.780;25.948;2023-04-05T06:55:58;100519.47;;;18.89;63.41
45285;BME280;31026;43.780;25.948;2023-04-05T06:58:29;100528.19;;;18.72;63.84
45285;BME280;31026;43.780;25.948;2023-04-05T07:00:58;100517.81;;;18.88;63.07
45285;BME280;31026;43.780;25.948;2023-04-05T07:03:27;100518.19;;;19.32;62.25
45285;BME280;31026;43.780;25.948;2023-04-05T07:05:58;100527.31;;;19.59;61.45
45285;BME280;31026;43.780;25.948;2023-04-05T07:08:30;100516.00;;;19.65;61.52
45285;BME280;31026;43.780;25.948;2023-04-05T07:10:59;100506.44;;;19.53;62.34
45285;BME280;31026;43.780;25.948;2023-04-05T07:13:28;100522.16;;;19.08;63.54
45285;BME280;31026;43.780;25.948;2023-04-05T07:16:00;100514.78;;;18.72;64.38
45285;BME280;31026;43.780;25.948;2023-04-05T07:18:28;100527.25;;;18.82;64.25
45285;BME280;31026;43.780;25.948;2023-04-05T07:20:57;100527.78;;;19.15;62.98
45285;BME280;31026;43.780;25.948;2023-04-05T07:23:31;100542.56;;;19.48;62.29
45285;BME280;31026;43.780;25.948;2023-04-05T07:26:00;100527.13;;;19.70;61.33
45285;BME280;31026;43.780;25.948;2023-04-05T07:28:33;100527.88;;;19.72;61.33
45285;BME280;31026;43.780;25.948;2023-04-05T07:31:04;100532.09;;;19.75;61.44
45285;BME280;31026;43.780;25.948;2023-04-05T07:33:32;100536.91;;;19.71;61.24
45285;BME280;31026;43.780;25.948;2023-04-05T07:36:01;100521.78;;;19.70;61.68
45285;BME280;31026;43.780;25.948;2023-04-05T07:38:33;100547.75;;;19.70;61.68
45285;BME280;31026;43.780;25.948;2023-04-05T07:41:02;100537.88;;;19.70;61.71
45285;BME280;31026;43.780;25.948;2023-04-05T07:43:30;100542.53;;;19.78;61.94
45285;BME280;31026;43.780;25.948;2023-04-05T07:46:02;100546.63;;;19.82;61.52
45285;BME280;31026;43.780;25.948;2023-04-05T07:48:30;100536.31;;;19.77;61.92
45285;BME280;31026;43.780;25.948;2023-04-05T07:51:02;100542.97;;;19.73;62.26
45285;BME280;31026;43.780;25.948;2023-04-05T07:53:33;100542.44;;;19.40;62.69
45285;BME280;31026;43.780;25.948;2023-04-05T07:56:02;100540.50;;;19.03;63.63
45285;BME280;31026;43.780;25.948;2023-04-05T07:58:31;100550.03;;;18.77;64.35
45285;BME280;31026;43.780;25.948;2023-04-05T08:00:59;100542.63;;;18.80;64.48
45285;BME280;31026;43.780;25.948;2023-04-05T08:03:28;100545.00;;;19.22;63.47
45285;BME280;31026;43.780;25.948;2023-04-05T08:05:59;100546.50;;;19.64;62.19
45285;BME280;31026;43.780;25.948;2023-04-05T08:08:27;100560.53;;;19.19;63.87
45285;BME280;31026;43.780;25.948;2023-04-05T08:10:58;100555.03;;;18.91;64.60
45285;BME280;31026;43.780;25.948;2023-04-05T08:13:29;100560.38;;;18.81;64.69
45285;BME280;31026;43.780;25.948;2023-04-05T08:15:58;100559.25;;;19.03;64.28
45285;BME280;31026;43.780;25.948;2023-04-05T08:18:26;100535.94;;;19.53;63.35
45285;BME280;31026;43.780;25.948;2023-04-05T08:20:55;100556.44;;;19.34;64.03
45285;BME280;31026;43.780;25.948;2023-04-05T08:23:23;100554.75;;;18.94;64.73
45285;BME280;31026;43.780;25.948;2023-04-05T08:25:52;100569.34;;;18.71;65.40
45285;BME280;31026;43.780;25.948;2023-04-05T08:28:23;100559.97;;;19.05;64.98
45285;BME280;31026;43.780;25.948;2023-04-05T08:30:52;100555.56;;;19.43;63.86
45285;BME280;31026;43.780;25.948;2023-04-05T08:33:21;100559.22;;;19.62;62.79
45285;BME280;31026;43.780;25.948;2023-04-05T08:35:50;100573.66;;;19.22;63.59
45285;BME280;31026;43.780;25.948;2023-04-05T08:38:18;100557.00;;;18.89;64.65
45285;BME280;31026;43.780;25.948;2023-04-05T08:40:47;100578.09;;;18.73;65.06
45285;BME280;31026;43.780;25.948;2023-04-05T08:43:17;100568.16;;;18.94;64.20
45285;BME280;31026;43.780;25.948;2023-04-05T08:45:50;100572.50;;;19.54;62.91
45285;BME280;31026;43.780;25.948;2023-04-05T08:48:25;100574.03;;;19.66;62.45
45285;BME280;31026;43.780;25.948;2023-04-05T08:50:55;100568.00;;;19.15;63.97
45285;BME280;31026;43.780;25.948;2023-04-05T08:53:23;100580.41;;;18.87;64.38
45285;BME280;31026;43.780;25.948;2023-04-05T08:55:54;100583.16;;;18.76;65.14
45285;BME280;31026;43.780;25.948;2023-04-05T08:58:23;100574.19;;;19.16;63.81
45285;BME280;31026;43.780;25.948;2023-04-05T09:00:55;100568.94;;;19.63;62.51
45285;BME280;31026;43.780;25.948;2023-04-05T09:03:25;100584.91;;;19.45;63.13
45285;BME280;31026;43.780;25.948;2023-04-05T09:05:57;100589.88;;;19.01;64.49
45285;BME280;31026;43.780;25.948;2023-04-05T09:08:25;100596.44;;;18.77;64.86
45285;BME280;31026;43.780;25.948;2023-04-05T09:10:54;100586.91;;;18.84;64.45
45285;BME280;31026;43.780;25.948;2023-04-05T09:13:22;100598.06;;;19.38;63.46
45285;BME280;31026;43.780;25.948;2023-04-05T09:15:52;100593.09;;;19.43;63.00
45285;BME280;31026;43.780;25.948;2023-04-05T09:18:23;100578.16;;;19.02;63.89
45285;BME280;31026;43.780;25.948;2023-04-05T09:20:55;100605.78;;;18.83;64.78
45285;BME280;31026;43.780;25.948;2023-04-05T09:23:23;100598.00;;;18.80;64.79
45285;BME280;31026;43.780;25.948;2023-04-05T09:25:51;100589.88;;;19.20;63.79
45285;BME280;31026;43.780;25.948;2023-04-05T09:28:20;100587.16;;;19.59;62.27
45285;BME280;31026;43.780;25.948;2023-04-05T09:30:48;100594.81;;;19.25;63.49
45285;BME280;31026;43.780;25.948;2023-04-05T09:33:18;100600.13;;;18.86;64.85
45285;BME280;31026;43.780;25.948;2023-04-05T09:35:51;100591.03;;;18.67;64.96
45285;BME280;31026;43.780;25.948;2023-04-05T09:38:20;100589.03;;;19.00;63.99
45285;BME280;31026;43.780;25.948;2023-04-05T09:41:08;100589.72;;;19.51;62.60
45285;BME280;31026;43.780;25.948;2023-04-05T09:43:37;100589.44;;;19.25;63.31
45285;BME280;31026;43.780;25.948;2023-04-05T09:46:15;100600.13;;;18.86;64.56
45285;BME280;31026;43.780;25.948;2023-04-05T09:48:54;100607.81;;;18.69;64.90
45285;BME280;31026;43.780;25.948;2023-04-05T09:51:30;100599.44;;;19.03;63.87
45285;BME280;31026;43.780;25.948;2023-04-05T09:53:59;100588.16;;;19.48;62.55
45285;BME280;31026;43.780;25.948;2023-04-05T09:56:29;100588.03;;;19.21;63.26
45285;BME280;31026;43.780;25.948;2023-04-05T09:58:57;100583.78;;;18.89;64.63
45285;BME280;31026;43.780;25.948;2023-04-05T10:01:29;100584.03;;;18.76;64.86
45285;BME280;31026;43.780;25.948;2023-04-05T10:03:57;100550.25;;;19.04;63.62
45285;BME280;31026;43.780;25.948;2023-04-05T10:06:39;100559.78;;;19.56;62.39
45285;BME280;31026;43.780;25.948;2023-04-05T10:09:08;100548.78;;;19.39;62.87
45285;BME280;31026;43.780;25.948;2023-04-05T10:11:40;100547.13;;;18.99;64.25
45285;BME280;31026;43.780;25.948;2023-04-05T10:14:11;100562.59;;;18.76;64.61
45285;BME280;31026;43.780;25.948;2023-04-05T10:16:42;100565.03;;;18.99;64.00
45285;BME280;31026;43.780;25.948;2023-04-05T10:19:14;100557.25;;;19.44;63.06
45285;BME280;31026;43.780;25.948;2023-04-05T10:21:46;100566.53;;;19.79;61.89
45285;BME280;31026;43.780;25.948;2023-04-05T10:24:17;100552.16;;;19.51;62.49
45285;BME280;31026;43.780;25.948;2023-04-05T10:26:51;100558.97;;;19.06;64.09
45285;BME280;31026;43.780;25.948;2023-04-05T10:29:24;100564.31;;;18.87;64.28
45285;BME280;31026;43.780;25.948;2023-04-05T10:31:58;100561.09;;;19.03;63.80
45285;BME280;31026;43.780;25.948;2023-04-05T10:34:30;100551.06;;;19.44;62.85
45285;BME280;31026;43.780;25.948;2023-04-05T10:37:03;100553.97;;;19.70;61.90
45285;BME280;31026;43.780;25.948;2023-04-05T10:39:32;100556.78;;;19.78;61.84
45285;BME280;31026;43.780;25.948;2023-04-05T10:42:04;100564.47;;;19.34;63.09
45285;BME280;31026;43.780;25.948;2023-04-05T10:44:35;100565.19;;;18.97;64.33
45285;BME280;31026;43.780;25.948;2023-04-05T10:47:03;100567.28;;;18.84;64.62
45285;BME280;31026;43.780;25.948;2023-04-05T10:49:36;100568.25;;;19.32;63.29
45285;BME280;31026;43.780;25.948;2023-04-05T10:52:08;100556.09;;;19.66;62.28
45285;BME280;31026;43.780;25.948;2023-04-05T10:54:37;100561.84;;;19.81;61.62
45285;BME280;31026;43.780;25.948;2023-04-05T10:57:06;100570.78;;;19.53;63.13
45285;BME280;31026;43.780;25.948;2023-04-05T10:59:39;100569.28;;;19.11;63.94
45285;BME280;31026;43.780;25.948;2023-04-05T11:02:09;100551.63;;;18.89;64.32
45285;BME280;31026;43.780;25.948;2023-04-05T11:04:38;100562.94;;;19.22;63.64
45285;BME280;31026;43.780;25.948;2023-04-05T11:07:13;100567.09;;;19.63;62.05
45285;BME280;31026;43.780;25.948;2023-04-05T11:09:51;100583.63;;;19.68;61.32
45285;BME280;31026;43.780;25.948;2023-04-05T11:12:31;100568.81;;;19.55;61.52
45285;BME280;31026;43.780;25.948;2023-04-05T11:18:19;100583.09;;;18.87;64.01
45285;BME280;31026;43.780;25.948;2023-04-05T11:20:48;100569.69;;;19.06;64.14
45285;BME280;31026;43.780;25.948;2023-04-05T11:23:20;100581.78;;;19.59;62.33
45285;BME280;31026;43.780;25.948;2023-04-05T11:25:51;100569.66;;;19.45;63.28
45285;BME280;31026;43.780;25.948;2023-04-05T11:28:22;100570.13;;;19.12;63.97
45285;BME280;31026;43.780;25.948;2023-04-05T11:30:51;100574.78;;;18.90;64.66
45285;BME280;31026;43.780;25.948;2023-04-05T11:33:53;100586.75;;;19.25;64.09
45285;BME280;31026;43.780;25.948;2023-04-05T11:36:30;100576.16;;;19.72;62.30
45285;BME280;31026;43.780;25.948;2023-04-05T11:41:42;100570.69;;;19.15;63.52
45285;BME280;31026;43.780;25.948;2023-04-05T11:44:11;100575.19;;;18.85;64.07
45285;BME280;31026;43.780;25.948;2023-04-05T11:46:40;100563.88;;;18.82;64.25
45285;BME280;31026;43.780;25.948;2023-04-05T11:49:11;100563.47;;;19.45;62.90
45285;BME280;31026;43.780;25.948;2023-04-05T11:51:40;100569.63;;;19.65;62.03
45285;BME280;31026;43.780;25.948;2023-04-05T11:54:12;100580.81;;;19.51;62.73
45285;BME280;31026;43.780;25.948;2023-04-05T11:56:41;100572.66;;;19.23;63.69
45285;BME280;31026;43.780;25.948;2023-04-05T11:59:12;100588.03;;;19.01;64.51
45285;BME280;31026;43.780;25.948;2023-04-05T12:01:43;100579.00;;;18.93;65.27
45285;BME280;31026;43.780;25.948;2023-04-05T12:04:15;100571.50;;;19.45;63.43
45285;BME280;31026;43.780;25.948;2023-04-05T12:06:44;100567.53;;;19.68;62.57
45285;BME280;31026;43.780;25.948;2023-04-05T12:09:13;100570.66;;;19.74;62.68
45285;BME280;31026;43.780;25.948;2023-04-05T12:11:41;100574.63;;;19.40;63.42
45285;BME280;31026;43.780;25.948;2023-04-05T12:14:11;100575.47;;;19.12;64.49
45285;BME280;31026;43.780;25.948;2023-04-05T12:16:39;100586.03;;;18.84;65.05
45285;BME280;31026;43.780;25.948;2023-04-05T12:19:20;100578.47;;;19.28;64.00
45285;BME280;31026;43.780;25.948;2023-04-05T12:21:49;100569.81;;;19.54;63.38
45285;BME280;31026;43.780;25.948;2023-04-05T12:24:17;100583.63;;;19.68;62.71
45285;BME280;31026;43.780;25.948;2023-04-05T12:26:47;100568.97;;;19.43;63.72
45285;BME280;31026;43.780;25.948;2023-04-05T12:29:15;100574.78;;;19.10;64.79
45285;BME280;31026;43.780;25.948;2023-04-05T12:31:44;100595.09;;;18.93;65.73
45285;BME280;31026;43.780;25.948;2023-04-05T12:34:13;100579.84;;;18.93;65.34
45285;BME280;31026;43.780;25.948;2023-04-05T12:36:45;100580.25;;;19.57;63.49
45285;BME280;31026;43.780;25.948;2023-04-05T12:39:13;100584.91;;;19.74;63.17
45285;BME280;31026;43.780;25.948;2023-04-05T12:41:42;100583.50;;;19.51;63.75
45285;BME280;31026;43.780;25.948;2023-04-05T12:44:13;100572.09;;;19.10;65.10
45285;BME280;31026;43.780;25.948;2023-04-05T12:46:43;100586.22;;;18.92;65.83
45285;BME280;31026;43.780;25.948;2023-04-05T12:49:12;100582.53;;;18.93;66.09
45285;BME280;31026;43.780;25.948;2023-04-05T12:51:41;100584.22;;;19.33;64.61
45285;BME280;31026;43.780;25.948;2023-04-05T12:54:14;100587.59;;;19.55;63.16
45285;BME280;31026;43.780;25.948;2023-04-05T12:56:48;100574.75;;;19.58;62.89
45285;BME280;31026;43.780;25.948;2023-04-05T12:59:18;100578.03;;;19.23;64.24
45285;BME280;31026;43.780;25.948;2023-04-05T13:01:46;100591.69;;;18.91;65.10
45285;BME280;31026;43.780;25.948;2023-04-05T13:04:14;100582.91;;;18.79;65.87
45285;BME280;31026;43.780;25.948;2023-04-05T13:06:42;100578.41;;;19.47;64.24
45285;BME280;31026;43.780;25.948;2023-04-05T13:09:13;100571.50;;;19.74;63.21
45285;BME280;31026;43.780;25.948;2023-04-05T13:11:43;100577.81;;;19.63;63.84
45285;BME280;31026;43.780;25.948;2023-04-05T13:14:11;100577.31;;;19.21;64.43
45285;BME280;31026;43.780;25.948;2023-04-05T13:16:39;100579.84;;;18.93;65.19
45285;BME280;31026;43.780;25.948;2023-04-05T13:19:08;100565.59;;;18.93;65.85
45285;BME280;31026;43.780;25.948;2023-04-05T13:21:36;100573.03;;;19.47;64.04
45285;BME280;31026;43.780;25.948;2023-04-05T13:24:04;100569.38;;;19.68;63.35
45285;BME280;31026;43.780;25.948;2023-04-05T13:26:35;100570.78;;;19.72;63.54
45285;BME280;31026;43.780;25.948;2023-04-05T13:29:04;100579.00;;;19.32;64.58
45285;BME280;31026;43.780;25.948;2023-04-05T13:31:33;100574.38;;;19.04;66.10
45285;BME280;31026;43.780;25.948;2023-04-05T13:34:01;100570.38;;;18.79;66.47